Aérodrome :
LOGIN :

S'inscrire | Disclaimer

   EN    FR    IT 

 










Légende :    VFR   VFR Marginal   IFR   IFR Intensif   IFR Très Intensif
Visi : 
Plafond : 
>= 8 km
>= 3000ft
5 à 8 km
1000 à 3000 ft
1500m à 5 km
500 à 1000 ft
800 à 1500m
200 à 500 ft
< 800m
< 200 ft
Symboles :   Orages  Brouillard  Fortes neiges  Fortes précipitations  Vent > 20 kt
SIGMETs :   Divers  Orages  Givrage  Turbulence  Onde Orograph.  Cendres Volcan.






- Altitude de l'aérodrome : 202 ft
- Code IATA : SQZ


EGXP - RAF Scampton

DERNIER METAR :
  • 221650Z AUTO 13010KT 9999 // FEW019/// SCT030/// 08/06 Q0996

METARs EXPIRÉS :
  • 221550Z AUTO 12008KT 9999 // FEW027/// 08/06 Q0996
  • 221450Z AUTO 13009KT 9999 // BKN010/// BKN018/// 08/07 Q0996
  • 221350Z AUTO 14009KT 9999 // BKN008/// BKN050/// 08/07 Q0995

TAF AMD TAF EGXP
Valide du 22 à 11h jusqu'au 22 à 18h UTC


221136Z 2211/2218 14012KT 9999 BKN030
TEMPO 2211/2216 SCT012
PROB40
TEMPO 2212/2214 SCT006
TEMPO 2216/2218 5000 RA BKN012



MET'MAP, la Météo Aéronautique d'un coup d'oeil ! - Copyright ORBIFLY Décembre 2007 - Disclaimer

ORBIFLY MET'MAP TEAM :

Programmation & Développement : Alexandra Zaïnal
Conception & Développement : Baudouin d'Aumeries
Co-Programmation & Développement : Marc-Olivier Méhu
Soutien technique & logistique : Manuel Goepfert

Contact : metmap@orbifly.com




SOURCES & CREDITS :

   NOAA